createdAt,value
2022-12-18T00:01:22.408Z,58.92
2022-12-18T00:03:49.150Z,60.97
2022-12-18T00:06:16.642Z,55.60
2022-12-18T00:08:44.303Z,60.95
2022-12-18T00:11:20.094Z,58.65
2022-12-18T00:13:47.213Z,55.63
2022-12-18T00:16:16.551Z,56.63
2022-12-18T00:18:43.641Z,58.97
2022-12-18T00:21:12.433Z,54.60
2022-12-18T00:23:40.620Z,59.40
2022-12-18T00:26:15.939Z,54.97
2022-12-18T00:28:43.401Z,58.08
2022-12-18T00:31:15.604Z,57.72
2022-12-18T00:33:42.426Z,45.53
2022-12-18T00:36:15.434Z,50.75
2022-12-18T00:38:42.599Z,54.47
2022-12-18T00:41:11.153Z,65.05
2022-12-18T00:43:39.566Z,56.65
2022-12-18T00:46:06.694Z,56.17
2022-12-18T00:48:33.745Z,56.00
2022-12-18T00:51:00.259Z,55.20
2022-12-18T00:53:26.868Z,54.15
2022-12-18T00:55:53.317Z,59.67
2022-12-18T00:58:19.877Z,59.20
2022-12-18T01:00:46.446Z,55.65
2022-12-18T01:03:16.270Z,51.25
2022-12-18T01:05:43.554Z,55.40
2022-12-18T01:08:10.498Z,55.80
2022-12-18T01:10:37.054Z,53.88
2022-12-18T01:13:03.586Z,55.03
2022-12-18T01:15:30.089Z,56.70
2022-12-18T01:17:56.660Z,53.05
2022-12-18T01:20:23.198Z,57.15
2022-12-18T01:22:49.705Z,59.70
2022-12-18T01:25:16.345Z,57.85
2022-12-18T01:27:42.828Z,54.88
2022-12-18T01:30:09.769Z,54.35
2022-12-18T01:32:36.296Z,60.13
2022-12-18T01:35:03.153Z,56.50
2022-12-18T01:37:29.812Z,52.63
2022-12-18T01:39:56.522Z,55.30
2022-12-18T01:42:23.060Z,57.80
2022-12-18T01:45:00.249Z,58.55
2022-12-18T01:47:45.575Z,55.72
2022-12-18T01:50:28.119Z,55.80
2022-12-18T01:53:03.862Z,51.92
2022-12-18T01:55:36.109Z,54.60
2022-12-18T01:58:03.167Z,56.00
2022-12-18T02:00:30.889Z,57.03
2022-12-18T02:02:57.803Z,57.00
2022-12-18T02:05:50.313Z,51.55
2022-12-18T02:08:34.906Z,50.83
2022-12-18T02:11:11.919Z,53.38
2022-12-18T02:13:54.566Z,56.40
2022-12-18T02:16:36.389Z,62.78
2022-12-18T02:19:16.517Z,54.92
2022-12-18T02:21:52.248Z,57.90
2022-12-18T02:24:30.563Z,57.55
2022-12-18T02:27:07.579Z,56.20
2022-12-18T02:29:39.997Z,57.75
2022-12-18T02:32:11.442Z,53.70
2022-12-18T02:34:39.999Z,52.60
2022-12-18T02:37:17.116Z,56.13
2022-12-18T02:39:47.140Z,54.45
2022-12-18T02:42:14.598Z,55.70
2022-12-18T02:44:47.081Z,62.35
2022-12-18T02:47:15.813Z,56.13
2022-12-18T02:50:08.743Z,52.45
2022-12-18T02:52:49.232Z,54.90
2022-12-18T02:55:49.843Z,58.35
2022-12-18T02:58:31.555Z,62.25
2022-12-18T03:01:24.226Z,60.35
2022-12-18T03:03:58.797Z,57.88
2022-12-18T03:06:31.060Z,58.80
2022-12-18T03:09:02.089Z,65.20
2022-12-18T03:11:52.572Z,62.85
2022-12-18T03:14:21.704Z,57.17
2022-12-18T03:16:53.546Z,60.05
2022-12-18T03:19:24.960Z,61.05
2022-12-18T03:21:55.548Z,56.05
2022-12-18T03:24:23.786Z,54.25
2022-12-18T03:26:55.751Z,59.90
2022-12-18T03:29:39.150Z,58.47
2022-12-18T03:32:11.534Z,51.95
2022-12-18T03:34:41.429Z,53.10
2022-12-18T03:37:08.468Z,58.58
2022-12-18T03:39:36.232Z,54.88
2022-12-18T03:42:05.702Z,55.33
2022-12-18T03:44:59.796Z,56.13
2022-12-18T03:47:46.838Z,49.83
2022-12-18T03:50:19.356Z,52.85
2022-12-18T03:53:07.057Z,57.22
2022-12-18T03:55:36.352Z,53.97
2022-12-18T03:58:07.240Z,52.60
2022-12-18T04:00:35.655Z,51.15
2022-12-18T04:03:04.836Z,49.90
2022-12-18T04:05:33.155Z,56.20
2022-12-18T04:07:59.997Z,50.35
2022-12-18T04:10:26.573Z,46.80
2022-12-18T04:12:57.545Z,52.15
2022-12-18T04:15:24.958Z,47.03
2022-12-18T04:17:51.640Z,49.60
2022-12-18T04:20:18.797Z,46.15
2022-12-18T04:22:45.498Z,46.67
2022-12-18T04:25:13.138Z,48.80
2022-12-18T04:27:39.896Z,49.05
2022-12-18T04:30:07.125Z,45.58
2022-12-18T04:32:35.013Z,46.83
2022-12-18T04:35:01.574Z,48.05
2022-12-18T04:37:28.014Z,40.53
2022-12-18T04:39:54.622Z,43.15
2022-12-18T04:42:21.090Z,43.40
2022-12-18T04:44:47.681Z,60.25
2022-12-18T04:47:14.162Z,46.92
2022-12-18T04:49:40.728Z,43.92
2022-12-18T04:52:07.800Z,50.17
2022-12-18T04:54:34.272Z,45.67
2022-12-18T04:57:00.726Z,46.80
2022-12-18T04:59:27.286Z,46.05
2022-12-18T05:01:54.107Z,54.50
2022-12-18T05:04:20.729Z,44.33
2022-12-18T05:06:47.285Z,46.88
2022-12-18T05:09:14.720Z,42.40
2022-12-18T05:11:41.305Z,48.42
2022-12-18T05:14:07.750Z,48.67
2022-12-18T05:16:34.875Z,43.83
2022-12-18T05:19:01.367Z,45.42
2022-12-18T05:21:27.775Z,42.25
2022-12-18T05:23:54.234Z,44.20
2022-12-18T05:26:20.775Z,47.90
2022-12-18T05:28:47.252Z,47.40
2022-12-18T05:31:14.395Z,44.92
2022-12-18T05:33:41.436Z,47.67
2022-12-18T05:36:09.722Z,47.00
2022-12-18T05:38:38.208Z,46.88
2022-12-18T05:41:05.568Z,48.15
2022-12-18T05:43:34.398Z,44.97
2022-12-18T05:46:05.309Z,48.20
2022-12-18T05:48:31.804Z,44.25
2022-12-18T05:51:05.894Z,48.47
2022-12-18T05:53:32.523Z,44.90
2022-12-18T05:56:02.499Z,46.00
2022-12-18T05:58:29.013Z,49.78
2022-12-18T06:00:55.521Z,46.17
2022-12-18T06:03:22.011Z,42.20
2022-12-18T06:05:48.770Z,40.63
2022-12-18T06:08:15.277Z,41.95
2022-12-18T06:10:42.353Z,48.05
2022-12-18T06:13:09.000Z,41.72
2022-12-18T06:15:38.568Z,42.38
2022-12-18T06:18:05.237Z,42.88
2022-12-18T06:20:33.596Z,47.20
2022-12-18T06:23:00.977Z,41.92
2022-12-18T06:25:27.448Z,45.00
2022-12-18T06:27:53.972Z,46.70
2022-12-18T06:30:20.789Z,40.20
2022-12-18T06:32:54.705Z,42.55
2022-12-18T06:35:23.018Z,42.92
2022-12-18T06:37:49.522Z,36.47
2022-12-18T06:40:15.949Z,45.35
2022-12-18T06:42:42.374Z,46.92
2022-12-18T06:45:09.463Z,35.90
2022-12-18T06:47:35.932Z,44.50
2022-12-18T06:50:02.401Z,40.53
2022-12-18T06:52:28.877Z,42.40
2022-12-18T06:54:55.323Z,36.03
2022-12-18T06:57:22.032Z,44.85
2022-12-18T06:59:48.480Z,39.40
2022-12-18T07:02:15.507Z,40.13
2022-12-18T07:04:42.038Z,42.05
2022-12-18T07:07:08.537Z,40.38
2022-12-18T07:09:35.004Z,45.42
2022-12-18T07:12:01.466Z,40.13
2022-12-18T07:14:27.929Z,46.40
2022-12-18T07:16:54.621Z,39.35
2022-12-18T07:19:21.293Z,41.58
2022-12-18T07:21:47.726Z,40.63
2022-12-18T07:24:14.200Z,45.15
2022-12-18T07:26:40.692Z,43.72
2022-12-18T07:29:07.115Z,43.67
2022-12-18T07:31:33.544Z,37.80
2022-12-18T07:34:00.047Z,43.20
2022-12-18T07:36:26.556Z,41.05
2022-12-18T07:38:53.888Z,45.35
2022-12-18T07:41:21.045Z,42.63
2022-12-18T07:43:48.007Z,41.13
2022-12-18T07:46:16.033Z,42.13
2022-12-18T07:48:49.917Z,45.28
2022-12-18T07:51:17.957Z,42.25
2022-12-18T07:53:45.226Z,42.75
2022-12-18T07:56:30.467Z,44.90
2022-12-18T07:58:58.711Z,43.35
2022-12-18T08:01:25.558Z,45.20
2022-12-18T08:03:52.728Z,41.67
2022-12-18T08:06:22.504Z,43.30
2022-12-18T08:08:52.617Z,40.70
2022-12-18T08:11:19.078Z,44.08
2022-12-18T08:13:46.209Z,41.25
2022-12-18T08:16:12.860Z,50.53
2022-12-18T08:18:39.373Z,53.67
2022-12-18T08:21:13.654Z,45.85
2022-12-18T08:23:42.983Z,43.53
2022-12-18T08:26:11.030Z,37.28
2022-12-18T08:28:37.573Z,40.75
2022-12-18T08:31:05.036Z,44.15
2022-12-18T08:33:31.785Z,40.97
2022-12-18T08:36:00.383Z,38.58
2022-12-18T08:38:26.920Z,38.53
2022-12-18T08:41:25.668Z,37.67
2022-12-18T08:44:10.931Z,40.00
2022-12-18T08:46:40.845Z,39.50
2022-12-18T08:49:08.765Z,42.00
2022-12-18T08:51:36.602Z,43.75
2022-12-18T08:54:04.130Z,39.33
2022-12-18T08:56:33.001Z,49.00
2022-12-18T08:58:59.612Z,49.42
2022-12-18T09:01:26.395Z,45.10
2022-12-18T09:03:53.006Z,42.72
2022-12-18T09:06:21.806Z,45.15
2022-12-18T09:08:48.383Z,48.92
2022-12-18T09:11:19.915Z,45.28
2022-12-18T09:13:46.340Z,42.92
2022-12-18T09:16:12.926Z,49.55
2022-12-18T09:18:39.699Z,55.38
2022-12-18T09:21:14.716Z,43.78
2022-12-18T09:23:41.899Z,44.05
2022-12-18T09:26:08.864Z,48.15
2022-12-18T09:28:35.615Z,47.05
2022-12-18T09:31:08.258Z,44.97
2022-12-18T09:33:38.170Z,46.03
2022-12-18T09:36:07.716Z,46.83
2022-12-18T09:38:35.803Z,46.67
2022-12-18T09:41:38.061Z,47.08
2022-12-18T09:44:29.918Z,51.10
2022-12-18T09:47:08.589Z,44.13
2022-12-18T09:49:42.169Z,42.63
2022-12-18T09:54:58.911Z,42.40
2022-12-18T09:57:26.637Z,42.53
2022-12-18T09:59:57.754Z,42.63
2022-12-18T10:02:27.382Z,45.65
2022-12-18T10:05:05.179Z,39.38
2022-12-18T10:07:48.592Z,40.75
2022-12-18T10:10:28.053Z,38.90
2022-12-18T10:13:32.059Z,38.45
2022-12-18T10:16:25.027Z,41.40
2022-12-18T10:19:00.569Z,38.03
2022-12-18T10:21:39.518Z,42.90
2022-12-18T10:24:12.113Z,41.25
2022-12-18T10:26:38.675Z,39.53
2022-12-18T10:29:13.080Z,46.40
2022-12-18T10:31:39.778Z,41.70
2022-12-18T10:34:13.267Z,38.95
2022-12-18T10:36:40.127Z,40.50
2022-12-18T10:39:23.691Z,38.45
2022-12-18T10:41:50.177Z,39.33
2022-12-18T10:44:22.471Z,40.55
2022-12-18T10:46:57.149Z,57.92
2022-12-18T10:49:27.950Z,35.90
2022-12-18T10:52:23.890Z,41.53
2022-12-18T10:54:53.998Z,40.10
2022-12-18T10:57:41.465Z,41.25
2022-12-18T11:00:31.308Z,38.50
2022-12-18T11:02:58.595Z,38.88
2022-12-18T11:05:30.291Z,41.00
2022-12-18T11:07:57.525Z,36.15
2022-12-18T11:10:31.138Z,36.53
2022-12-18T11:13:11.101Z,37.97
2022-12-18T11:15:38.051Z,35.92
2022-12-18T11:18:04.956Z,40.58
2022-12-18T11:20:37.020Z,38.25
2022-12-18T11:23:14.010Z,38.63
2022-12-18T11:25:42.800Z,40.10
2022-12-18T11:28:39.217Z,45.97
2022-12-18T11:31:28.775Z,40.22
2022-12-18T11:34:31.796Z,38.60
2022-12-18T11:36:49.619Z,42.70
2022-12-18T11:39:25.240Z,37.75
2022-12-18T11:42:12.804Z,39.17
2022-12-18T11:44:59.207Z,36.92
2022-12-18T11:48:02.492Z,40.33
2022-12-18T11:50:43.734Z,37.08
2022-12-18T11:53:12.314Z,45.85
2022-12-18T11:56:17.660Z,38.55
2022-12-18T11:58:54.193Z,37.83
2022-12-18T12:01:43.576Z,38.00
2022-12-18T12:04:29.543Z,37.08
2022-12-18T12:07:05.121Z,34.88
2022-12-18T12:09:50.081Z,36.55
2022-12-18T12:12:52.723Z,35.75
2022-12-18T12:15:22.031Z,40.83
2022-12-18T12:18:03.869Z,37.55
2022-12-18T12:20:53.608Z,44.40
2022-12-18T12:23:41.333Z,38.35
2022-12-18T12:26:32.786Z,37.85
2022-12-18T12:29:21.129Z,38.10
2022-12-18T12:32:12.762Z,37.05
2022-12-18T12:35:15.493Z,37.63
2022-12-18T12:38:00.348Z,40.40
2022-12-18T12:43:26.697Z,36.85
2022-12-18T12:46:10.899Z,38.35
2022-12-18T12:48:47.750Z,36.10
2022-12-18T12:51:29.122Z,38.92
2022-12-18T12:53:58.059Z,36.50
2022-12-18T12:56:31.861Z,37.83
2022-12-18T12:59:14.760Z,36.53
2022-12-18T13:02:24.021Z,36.57
2022-12-18T13:05:14.622Z,33.75
2022-12-18T13:07:54.178Z,32.60
2022-12-18T13:10:32.209Z,37.38
2022-12-18T13:13:05.387Z,43.55
2022-12-18T13:15:46.200Z,33.50
2022-12-18T13:18:25.094Z,42.25
2022-12-18T13:21:12.237Z,38.13
2022-12-18T13:23:40.791Z,35.33
2022-12-18T13:26:07.673Z,40.30
2022-12-18T13:28:37.090Z,37.38
2022-12-18T13:31:04.571Z,32.45
2022-12-18T13:33:31.090Z,36.78
2022-12-18T13:36:28.300Z,34.72
2022-12-18T13:39:11.775Z,41.55
2022-12-18T13:41:38.920Z,37.35
2022-12-18T13:44:18.356Z,38.15
2022-12-18T13:46:47.253Z,36.65
2022-12-18T13:49:14.089Z,34.85
2022-12-18T13:51:43.520Z,34.83
2022-12-18T13:54:33.464Z,43.55
2022-12-18T13:57:00.019Z,37.55
2022-12-18T13:59:47.634Z,36.47
2022-12-18T14:02:17.828Z,32.97
2022-12-18T14:04:48.526Z,40.35
2022-12-18T14:07:18.256Z,41.72
2022-12-18T14:09:55.632Z,43.60
2022-12-18T14:12:50.899Z,40.30
2022-12-18T14:15:34.752Z,38.70
2022-12-18T14:18:18.559Z,43.33
2022-12-18T14:20:50.756Z,40.65
2022-12-18T14:23:33.244Z,44.83
2022-12-18T14:26:05.503Z,41.20
2022-12-18T14:28:33.036Z,36.65
2022-12-18T14:30:59.779Z,35.95
2022-12-18T14:33:28.540Z,36.75
2022-12-18T14:36:03.792Z,38.78
2022-12-18T14:38:35.724Z,41.53
2022-12-18T14:41:22.550Z,39.60
2022-12-18T14:43:51.569Z,40.08
2022-12-18T14:46:31.040Z,36.95
2022-12-18T14:48:58.447Z,35.65
2022-12-18T14:51:30.648Z,34.72
2022-12-18T14:54:09.162Z,36.17
2022-12-18T14:56:37.961Z,36.50
2022-12-18T14:59:22.342Z,34.38
2022-12-18T15:02:00.729Z,34.45
2022-12-18T15:04:35.639Z,36.30
2022-12-18T15:07:20.744Z,34.25
2022-12-18T15:10:02.610Z,35.05
2022-12-18T15:12:49.226Z,37.70
2022-12-18T15:15:33.721Z,39.30
2022-12-18T15:18:07.733Z,35.80
2022-12-18T15:20:41.828Z,37.17
2022-12-18T15:23:28.711Z,34.17
2022-12-18T15:26:02.487Z,34.53
2022-12-18T15:28:28.980Z,36.22
2022-12-18T15:31:07.425Z,37.53
2022-12-18T15:33:39.719Z,31.38
2022-12-18T15:36:11.983Z,31.85
2022-12-18T15:38:38.616Z,31.27
2022-12-18T15:41:08.895Z,31.98
2022-12-18T15:43:39.362Z,34.75
2022-12-18T15:46:16.520Z,33.33
2022-12-18T15:48:50.158Z,31.88
2022-12-18T15:51:21.216Z,33.25
2022-12-18T15:53:49.677Z,30.27
2022-12-18T15:56:35.889Z,34.67
2022-12-18T15:59:03.413Z,32.80
2022-12-18T16:01:32.257Z,32.28
2022-12-18T16:03:58.916Z,40.95
2022-12-18T16:06:25.743Z,40.88
2022-12-18T16:08:52.233Z,33.22
2022-12-18T16:11:39.135Z,34.83
2022-12-18T16:14:27.573Z,38.55
2022-12-18T16:16:56.261Z,33.33
2022-12-18T16:19:23.582Z,34.55
2022-12-18T16:21:52.134Z,36.47
2022-12-18T16:24:22.910Z,33.55
2022-12-18T16:26:52.261Z,38.20
2022-12-18T16:29:19.829Z,38.22
2022-12-18T16:31:47.642Z,32.95
2022-12-18T16:34:26.740Z,29.42
2022-12-18T16:37:05.758Z,34.20
2022-12-18T16:39:35.085Z,34.40
2022-12-18T16:42:15.558Z,31.00
2022-12-18T16:44:42.406Z,38.15
2022-12-18T16:47:09.662Z,35.55
2022-12-18T16:49:37.915Z,34.65
2022-12-18T16:52:06.357Z,35.10
2022-12-18T16:54:35.076Z,37.60
2022-12-18T16:57:01.610Z,34.10
2022-12-18T16:59:29.210Z,36.47
2022-12-18T17:01:57.468Z,38.78
2022-12-18T17:04:24.186Z,32.50
2022-12-18T17:06:52.164Z,42.65
2022-12-18T17:09:23.782Z,37.60
2022-12-18T17:11:50.258Z,41.25
2022-12-18T17:14:19.764Z,38.47
2022-12-18T17:16:47.180Z,34.40
2022-12-18T17:19:17.466Z,37.08
2022-12-18T17:21:45.660Z,40.22
2022-12-18T17:24:12.253Z,35.45
2022-12-18T17:26:38.934Z,36.50
2022-12-18T17:29:05.638Z,36.95
2022-12-18T17:31:33.240Z,37.22
2022-12-18T17:34:02.999Z,40.25
2022-12-18T17:36:31.145Z,38.83
2022-12-18T17:39:00.036Z,38.33
2022-12-18T17:41:28.088Z,40.50
2022-12-18T17:43:59.706Z,39.42
2022-12-18T17:46:27.637Z,36.05
2022-12-18T17:49:01.497Z,42.00
2022-12-18T17:51:28.987Z,42.72
2022-12-18T17:53:55.497Z,38.70
2022-12-18T17:56:23.980Z,43.15
2022-12-18T17:58:50.950Z,44.40
2022-12-18T18:01:23.585Z,42.65
2022-12-18T18:03:53.751Z,35.40
2022-12-18T18:06:20.932Z,48.35
2022-12-18T18:08:48.010Z,43.33
2022-12-18T18:11:36.293Z,40.80
2022-12-18T18:14:06.201Z,43.50
2022-12-18T18:16:38.271Z,46.33
2022-12-18T18:19:13.960Z,43.72
2022-12-18T18:21:42.960Z,45.42
2022-12-18T18:24:11.377Z,44.28
2022-12-18T18:26:38.653Z,48.58
2022-12-18T18:29:07.183Z,48.75
2022-12-18T18:31:40.340Z,47.22
2022-12-18T18:34:08.094Z,48.28
2022-12-18T18:36:34.712Z,44.90
2022-12-18T18:39:01.906Z,44.95
2022-12-18T18:41:29.969Z,46.17
2022-12-18T18:43:58.025Z,51.45
2022-12-18T18:46:25.114Z,50.22
2022-12-18T18:48:51.981Z,54.13
2022-12-18T18:51:21.693Z,54.58
2022-12-18T18:53:50.376Z,48.25
2022-12-18T18:56:50.196Z,51.88
2022-12-18T18:59:06.363Z,49.17
2022-12-18T19:01:33.138Z,53.42
2022-12-18T19:04:01.070Z,45.92
2022-12-18T19:06:28.541Z,51.40
2022-12-18T19:08:57.212Z,54.72
2022-12-18T19:11:44.228Z,52.65
2022-12-18T19:14:12.892Z,49.67
2022-12-18T19:16:39.825Z,49.67
2022-12-18T19:19:06.733Z,53.47
2022-12-18T19:21:34.689Z,49.83
2022-12-18T19:24:02.679Z,57.28
2022-12-18T19:26:29.704Z,58.72
2022-12-18T19:29:07.070Z,55.17
2022-12-18T19:31:36.496Z,54.85
2022-12-18T19:34:06.716Z,54.17
2022-12-18T19:36:35.197Z,59.05
2022-12-18T19:39:07.085Z,51.08
2022-12-18T19:41:33.989Z,56.97
2022-12-18T19:44:08.267Z,47.83
2022-12-18T19:49:01.480Z,52.90
2022-12-18T19:51:29.674Z,58.28
2022-12-18T19:53:59.404Z,53.13
2022-12-18T19:56:31.037Z,59.50
2022-12-18T19:58:57.951Z,59.05
2022-12-18T20:01:25.995Z,61.13
2022-12-18T20:03:55.273Z,54.85
2022-12-18T20:06:31.424Z,55.63
2022-12-18T20:09:04.569Z,57.20
2022-12-18T20:11:32.653Z,56.70
2022-12-18T20:13:59.231Z,61.45
2022-12-18T20:16:25.857Z,62.70
2022-12-18T20:18:53.243Z,59.72
2022-12-18T20:21:19.893Z,60.90
2022-12-18T20:23:46.367Z,62.40
2022-12-18T20:26:13.182Z,61.17
2022-12-18T20:28:40.744Z,59.60
2022-12-18T20:31:10.504Z,61.20
2022-12-18T20:33:40.450Z,62.10
2022-12-18T20:36:12.386Z,66.50
2022-12-18T20:38:39.660Z,64.57
2022-12-18T20:41:09.949Z,61.33
2022-12-18T20:43:36.787Z,62.20
2022-12-18T20:46:05.947Z,70.43
2022-12-18T20:48:33.509Z,61.85
2022-12-18T20:51:06.221Z,57.83
2022-12-18T20:53:33.987Z,54.80
2022-12-18T20:56:02.203Z,68.13
2022-12-18T20:58:28.777Z,61.97
2022-12-18T21:01:06.355Z,67.03
2022-12-18T21:03:33.530Z,66.60
2022-12-18T21:06:00.039Z,63.97
2022-12-18T21:08:26.518Z,68.43
2022-12-18T21:10:53.356Z,71.93
2022-12-18T21:13:22.495Z,69.65
2022-12-18T21:15:48.988Z,67.40
2022-12-18T21:18:15.415Z,69.22
2022-12-18T21:20:42.202Z,66.28
2022-12-18T21:23:16.314Z,63.50
2022-12-18T21:25:44.419Z,72.00
2022-12-18T21:28:12.310Z,64.25
2022-12-18T21:30:38.915Z,67.75
2022-12-18T21:33:05.494Z,65.85
2022-12-18T21:35:32.171Z,64.05
2022-12-18T21:37:58.860Z,64.78
2022-12-18T21:40:25.358Z,66.97
2022-12-18T21:43:30.321Z,68.10
2022-12-18T21:45:56.791Z,67.85
2022-12-18T21:48:25.134Z,68.00
2022-12-18T21:50:51.657Z,61.70
2022-12-18T21:53:18.097Z,64.57
2022-12-18T21:55:44.566Z,62.60
2022-12-18T21:58:11.012Z,67.65
2022-12-18T22:00:37.477Z,63.97
2022-12-18T22:03:18.703Z,67.55
2022-12-18T22:05:45.929Z,69.32
2022-12-18T22:08:15.007Z,70.00
2022-12-18T22:10:41.722Z,66.85
2022-12-18T22:13:08.298Z,68.95
2022-12-18T22:15:34.805Z,64.78
2022-12-18T22:18:01.337Z,67.50
2022-12-18T22:20:30.106Z,65.97
2022-12-18T22:22:56.964Z,65.45
2022-12-18T22:25:23.443Z,70.00
2022-12-18T22:28:08.394Z,66.32
2022-12-18T22:30:35.491Z,60.33
2022-12-18T22:33:02.475Z,68.82
2022-12-18T22:35:28.978Z,63.13
2022-12-18T22:37:55.438Z,62.35
2022-12-18T22:40:27.057Z,64.00
2022-12-18T22:42:54.514Z,65.45
2022-12-18T22:45:21.131Z,66.18
2022-12-18T22:47:47.785Z,64.07
2022-12-18T22:50:14.702Z,57.72
2022-12-18T22:52:41.437Z,65.10
2022-12-18T22:55:08.521Z,58.22
2022-12-18T22:57:35.243Z,63.78
2022-12-18T23:00:03.697Z,56.00
2022-12-18T23:02:30.320Z,64.22
2022-12-18T23:04:56.887Z,63.58
2022-12-18T23:07:23.414Z,70.80
2022-12-18T23:09:51.385Z,63.33
2022-12-18T23:12:27.399Z,57.83
2022-12-18T23:14:54.158Z,67.70
2022-12-18T23:17:20.637Z,59.90
2022-12-18T23:19:49.229Z,64.68
2022-12-18T23:22:16.935Z,59.42
2022-12-18T23:24:43.407Z,57.33
2022-12-18T23:27:11.690Z,60.30
2022-12-18T23:29:39.609Z,59.00
2022-12-18T23:32:06.167Z,68.82
2022-12-18T23:34:32.695Z,59.97
2022-12-18T23:36:59.220Z,56.22
2022-12-18T23:39:29.673Z,61.95
2022-12-18T23:42:00.395Z,57.42
2022-12-18T23:44:27.594Z,59.80
2022-12-18T23:46:54.504Z,58.95
2022-12-18T23:49:21.084Z,58.10
2022-12-18T23:51:47.774Z,58.15
2022-12-18T23:54:14.276Z,57.28
2022-12-18T23:56:40.919Z,61.58
2022-12-18T23:59:07.415Z,61.40
